Watson Lake, Canada
Current Conditions -  °F | °C
As of 5:00 PM on Sunday 21 Dec 2014 (Local Time) from CYQH Reporting Station
Broken Clouds Broken Clouds  
Wind Chill:   Ceiling: 2000
Heat Index:   Visibility: 20mi
Dew Point: -2°   Wind: 2mph
Humidity: 85%   Direction: NA
Pressure: 29.52"   Gusts: NA
Location:  60.06°N, 128.71°W
Report Text: CYQH 220100Z VRB02KT 20SM BKN020 M17/M19 A2952 RMK SC5 SLP055
Loading
Personal Weather Stations






























Interactive Weather Map New forecast layout! Learn more

10-Day Weather Forecast

Advertisements
Track Severe Weather on mobile